Time;durP1;ratioP1;P1;durP2;ratioP2;P2;SDS_P1;SDS_P2;PMS_P1;PMS_P2;Temp;Humidity;BMP_temperature;BMP_pressure;BME280_temperature;BME280_humidity;BME280_pressure;Samples;Min_cycle;Max_cycle;Signal;HPM_P1;HPM_P2
2022/02/27 00:01:44;;;;;;;7.75;2.20;;;;;;;;;;4950043;28;20045;-65
2022/02/27 00:04:09;;;;;;;11.73;4.03;;;;;;;;;;4948502;28;20035;-65
2022/02/27 00:06:35;;;;;;;17.13;3.72;;;;;;;;;;4944694;28;20039;-64
2022/02/27 00:09:03;;;;;;;11.13;3.17;;;;;;;;;;4952035;28;20030;-64
2022/02/27 00:11:28;;;;;;;14.93;3.75;;;;;;;;;;4960624;28;20030;-64
2022/02/27 00:13:54;;;;;;;14.20;3.30;;;;;;;;;;4945435;28;20030;-64
2022/02/27 00:16:21;;;;;;;13.98;3.40;;;;;;;;;;4932916;28;20247;-64
2022/02/27 00:18:47;;;;;;;9.98;2.67;;;;;;;;;;4933022;28;20045;-64
2022/02/27 00:21:12;;;;;;;13.52;3.13;;;;;;;;;;4947252;28;20023;-64
2022/02/27 00:23:38;;;;;;;18.48;2.97;;;;;;;;;;4962360;28;20117;-64
2022/02/27 00:26:04;;;;;;;11.90;2.95;;;;;;;;;;4943436;28;20022;-64
2022/02/27 00:28:30;;;;;;;13.15;3.10;;;;;;;;;;4949496;28;20047;-64
2022/02/27 00:30:55;;;;;;;16.35;3.63;;;;;;;;;;4944080;28;20700;-64
2022/02/27 00:33:23;;;;;;;11.93;2.90;;;;;;;;;;4958612;28;20043;-64
2022/02/27 00:35:51;;;;;;;8.68;2.35;;;;;;;;;;4942867;28;20112;-64
2022/02/27 00:38:16;;;;;;;12.73;3.28;;;;;;;;;;4958592;28;20097;-64
2022/02/27 00:40:42;;;;;;;14.88;2.67;;;;;;;;;;4947001;28;20560;-64
2022/02/27 00:43:07;;;;;;;9.48;2.88;;;;;;;;;;4931026;28;20038;-63
2022/02/27 00:45:33;;;;;;;16.45;3.33;;;;;;;;;;4959556;28;20041;-63
2022/02/27 00:48:03;;;;;;;8.77;3.25;;;;;;;;;;4944416;28;20049;-64
2022/02/27 00:50:31;;;;;;;9.93;2.75;;;;;;;;;;4947623;28;20564;-64
2022/02/27 00:52:57;;;;;;;14.30;3.40;;;;;;;;;;4960732;28;20031;-64
2022/02/27 00:55:25;;;;;;;14.43;3.30;;;;;;;;;;4939474;28;20065;-64
2022/02/27 00:57:53;;;;;;;11.40;3.92;;;;;;;;;;4947577;28;20019;-64
2022/02/27 01:00:19;;;;;;;8.35;3.25;;;;;;;;;;4960209;28;20037;-63
2022/02/27 01:02:44;;;;;;;17.00;3.30;;;;;;;;;;4947707;28;20026;-63
2022/02/27 01:05:12;;;;;;;9.68;3.47;;;;;;;;;;4950209;28;21003;-63
2022/02/27 01:07:53;;;;;;;9.27;2.85;;;;;;;;;;4957529;28;20427;-63
2022/02/27 01:10:21;;;;;;;18.30;3.67;;;;;;;;;;4958876;28;20236;-63
2022/02/27 01:12:55;;;;;;;7.18;3.28;;;;;;;;;;4959262;28;20034;-65
2022/02/27 01:15:23;;;;;;;10.18;3.05;;;;;;;;;;4945318;28;20030;-65
2022/02/27 01:17:53;;;;;;;20.92;3.97;;;;;;;;;;4958426;28;20105;-64
2022/02/27 01:20:21;;;;;;;11.82;3.70;;;;;;;;;;4957724;28;20026;-64
2022/02/27 01:22:49;;;;;;;17.45;4.60;;;;;;;;;;4948362;28;20030;-64
2022/02/27 01:25:14;;;;;;;16.00;3.20;;;;;;;;;;4945572;28;20066;-64
2022/02/27 01:27:42;;;;;;;13.10;2.35;;;;;;;;;;4945347;28;20267;-63
2022/02/27 01:30:12;;;;;;;18.95;4.03;;;;;;;;;;4956470;28;20508;-64
2022/02/27 01:32:41;;;;;;;12.90;3.30;;;;;;;;;;4955382;28;20058;-63
2022/02/27 01:35:07;;;;;;;13.23;3.15;;;;;;;;;;4959035;28;20564;-63
2022/02/27 01:37:35;;;;;;;13.88;3.15;;;;;;;;;;4945036;28;20031;-63
2022/02/27 01:40:01;;;;;;;12.38;3.47;;;;;;;;;;4949531;28;20042;-65
2022/02/27 01:42:31;;;;;;;8.32;2.83;;;;;;;;;;4958463;28;20650;-64
2022/02/27 01:44:56;;;;;;;13.98;3.05;;;;;;;;;;4932333;28;20277;-63
2022/02/27 01:47:22;;;;;;;12.50;3.78;;;;;;;;;;4943474;28;20042;-65
2022/02/27 01:49:51;;;;;;;16.52;3.85;;;;;;;;;;4939494;28;20066;-63
2022/02/27 01:52:19;;;;;;;9.45;3.10;;;;;;;;;;4957427;28;20038;-63
2022/02/27 01:54:45;;;;;;;7.47;3.13;;;;;;;;;;4950359;28;20038;-62
2022/02/27 01:57:13;;;;;;;15.15;2.78;;;;;;;;;;4952878;28;20049;-63
2022/02/27 02:03:14;;;;;;;7.53;2.72;;;;;;;;;;4962306;28;20117;-63
2022/02/27 02:05:42;;;;;;;9.70;3.38;;;;;;;;;;4933436;28;20045;-63
2022/02/27 02:08:07;;;;;;;14.55;3.45;;;;;;;;;;4950894;28;20394;-62
2022/02/27 02:10:33;;;;;;;19.92;4.30;;;;;;;;;;4963674;28;20082;-63
2022/02/27 02:12:59;;;;;;;14.73;3.60;;;;;;;;;;4951828;28;20061;-62
2022/02/27 02:15:24;;;;;;;10.52;3.15;;;;;;;;;;4949926;28;20045;-63
2022/02/27 02:17:52;;;;;;;14.80;2.95;;;;;;;;;;4965898;28;20061;-62
2022/02/27 02:23:53;;;;;;;9.65;3.63;;;;;;;;;;4962526;28;20190;-63
2022/02/27 02:26:25;;;;;;;11.00;2.88;;;;;;;;;;4932530;28;20046;-62
2022/02/27 02:28:51;;;;;;;15.93;4.00;;;;;;;;;;4950094;28;20043;-63
2022/02/27 02:31:18;;;;;;;19.50;3.65;;;;;;;;;;4962981;28;20026;-63
2022/02/27 02:33:44;;;;;;;14.18;3.50;;;;;;;;;;4958752;28;20133;-63
2022/02/27 02:36:10;;;;;;;9.80;3.25;;;;;;;;;;4956766;28;20039;-63
2022/02/27 02:38:35;;;;;;;16.75;5.13;;;;;;;;;;4963389;28;20433;-63
2022/02/27 02:41:03;;;;;;;11.80;4.15;;;;;;;;;;4948635;28;20058;-62
2022/02/27 02:43:31;;;;;;;16.02;4.25;;;;;;;;;;4962809;28;20138;-63
2022/02/27 02:45:59;;;;;;;9.35;3.65;;;;;;;;;;4960156;28;20026;-62
2022/02/27 02:48:29;;;;;;;18.52;4.38;;;;;;;;;;4949488;28;20041;-62
2022/02/27 02:50:59;;;;;;;13.05;3.25;;;;;;;;;;4944589;28;20037;-62
2022/02/27 02:53:33;;;;;;;9.88;3.55;;;;;;;;;;4918643;28;20044;-61
2022/02/27 02:55:59;;;;;;;7.97;3.60;;;;;;;;;;4950837;28;20034;-63
2022/02/27 02:58:24;;;;;;;8.20;3.60;;;;;;;;;;4961781;28;20026;-63
2022/02/27 03:00:50;;;;;;;9.15;3.90;;;;;;;;;;4947805;28;20038;-63
2022/02/27 03:03:15;;;;;;;16.92;3.45;;;;;;;;;;4923228;28;20042;-63
2022/02/27 03:05:43;;;;;;;15.02;3.53;;;;;;;;;;4960509;28;20579;-62
2022/02/27 03:08:10;;;;;;;9.88;3.92;;;;;;;;;;4945616;28;20035;-62
2022/02/27 03:10:38;;;;;;;12.05;3.22;;;;;;;;;;4961708;28;20053;-62
2022/02/27 03:13:06;;;;;;;10.05;3.80;;;;;;;;;;4950521;28;20034;-62
2022/02/27 03:15:32;;;;;;;13.57;4.78;;;;;;;;;;4947246;28;20039;-62
2022/02/27 03:17:58;;;;;;;16.02;4.82;;;;;;;;;;4946489;28;20521;-62
2022/02/27 03:20:23;;;;;;;22.40;5.00;;;;;;;;;;4947911;28;20045;-61
2022/02/27 03:22:49;;;;;;;21.92;4.07;;;;;;;;;;4960270;28;20022;-62
2022/02/27 03:25:17;;;;;;;19.23;4.43;;;;;;;;;;4949128;28;20042;-62
2022/02/27 03:27:42;;;;;;;14.38;4.75;;;;;;;;;;4949645;28;20101;-61
2022/02/27 03:30:08;;;;;;;16.15;4.70;;;;;;;;;;4962186;28;20042;-61
2022/02/27 03:32:39;;;;;;;7.13;4.32;;;;;;;;;;4945555;28;20035;-62
2022/02/27 03:35:07;;;;;;;17.20;4.43;;;;;;;;;;4949922;28;20050;-61
2022/02/27 03:37:32;;;;;;;16.35;4.53;;;;;;;;;;4956928;28;20042;-62
2022/02/27 03:40:00;;;;;;;19.42;5.78;;;;;;;;;;4960931;28;20104;-62
2022/02/27 03:42:26;;;;;;;19.38;4.60;;;;;;;;;;4945668;28;20153;-61
2022/02/27 03:44:54;;;;;;;14.82;5.05;;;;;;;;;;4962791;28;21590;-61
2022/02/27 03:47:19;;;;;;;15.30;4.13;;;;;;;;;;4947166;28;20101;-63
2022/02/27 03:49:44;;;;;;;13.57;4.82;;;;;;;;;;4961031;28;20026;-61
2022/02/27 03:52:12;;;;;;;12.77;4.47;;;;;;;;;;4921924;28;20027;-61
2022/02/27 03:54:38;;;;;;;18.55;5.47;;;;;;;;;;4958197;28;20099;-61
2022/02/27 03:57:03;;;;;;;21.27;5.30;;;;;;;;;;4962545;28;20276;-61
2022/02/27 03:59:31;;;;;;;13.63;4.78;;;;;;;;;;4948845;28;20034;-61
2022/02/27 04:02:04;;;;;;;13.10;4.97;;;;;;;;;;4961750;28;20085;-61
2022/02/27 04:04:32;;;;;;;16.23;5.90;;;;;;;;;;4961453;28;20065;-62
2022/02/27 04:07:00;;;;;;;27.52;5.88;;;;;;;;;;4932107;28;20708;-61
2022/02/27 04:09:25;;;;;;;12.95;5.05;;;;;;;;;;4931001;28;20046;-61
2022/02/27 04:11:50;;;;;;;12.88;5.53;;;;;;;;;;4962688;28;20615;-61
2022/02/27 04:14:18;;;;;;;30.20;6.28;;;;;;;;;;4949072;28;20096;-61
2022/02/27 04:16:49;;;;;;;12.48;6.05;;;;;;;;;;4947695;28;21305;-61
2022/02/27 04:19:15;;;;;;;17.02;6.25;;;;;;;;;;4945966;28;20041;-61
2022/02/27 04:21:40;;;;;;;25.67;6.88;;;;;;;;;;4956943;28;20217;-61
2022/02/27 04:24:05;;;;;;;19.17;6.35;;;;;;;;;;4945023;28;20386;-62
2022/02/27 04:26:33;;;;;;;20.25;7.22;;;;;;;;;;4946648;28;20108;-63
2022/02/27 04:28:59;;;;;;;18.80;6.90;;;;;;;;;;4949349;28;20045;-63
2022/02/27 04:31:25;;;;;;;19.30;6.95;;;;;;;;;;4959465;28;20254;-62
2022/02/27 04:33:50;;;;;;;20.05;7.25;;;;;;;;;;4939393;28;20051;-61
2022/02/27 04:36:16;;;;;;;16.90;6.70;;;;;;;;;;4929363;28;20031;-62
2022/02/27 04:38:42;;;;;;;21.55;7.43;;;;;;;;;;4938911;28;20043;-61
2022/02/27 04:41:18;;;;;;;33.30;7.30;;;;;;;;;;4940032;28;20181;-61
2022/02/27 04:43:43;;;;;;;23.75;6.13;;;;;;;;;;4940728;28;20066;-61
2022/02/27 04:46:12;;;;;;;24.40;8.23;;;;;;;;;;4915769;28;20038;-60
2022/02/27 04:48:37;;;;;;;11.25;5.53;;;;;;;;;;4942170;28;20047;-61
2022/02/27 04:51:05;;;;;;;29.83;6.35;;;;;;;;;;4921924;28;20027;-61
2022/02/27 04:53:33;;;;;;;18.00;5.60;;;;;;;;;;4937214;28;20090;-61
2022/02/27 04:55:59;;;;;;;17.20;7.32;;;;;;;;;;4927004;28;20106;-60
2022/02/27 04:58:24;;;;;;;13.32;6.82;;;;;;;;;;4925923;28;20038;-61
2022/02/27 05:00:52;;;;;;;17.88;6.32;;;;;;;;;;4928596;28;20033;-60
2022/02/27 05:03:20;;;;;;;18.80;7.40;;;;;;;;;;4913440;28;20042;-62
2022/02/27 05:05:45;;;;;;;28.50;7.10;;;;;;;;;;4930047;28;20046;-60
2022/02/27 05:08:11;;;;;;;17.17;6.50;;;;;;;;;;4941061;28;20031;-62
2022/02/27 05:10:39;;;;;;;16.63;6.50;;;;;;;;;;4939750;28;20039;-61
2022/02/27 05:13:05;;;;;;;27.45;7.47;;;;;;;;;;4936355;28;20020;-61
2022/02/27 05:15:33;;;;;;;25.48;7.03;;;;;;;;;;4928279;28;21618;-61
2022/02/27 05:18:01;;;;;;;20.30;7.13;;;;;;;;;;4927992;28;20035;-62
2022/02/27 05:20:29;;;;;;;24.80;8.13;;;;;;;;;;4939306;28;20037;-61
2022/02/27 05:22:55;;;;;;;23.40;7.43;;;;;;;;;;4912393;28;20051;-61
2022/02/27 05:25:23;;;;;;;25.20;6.63;;;;;;;;;;4936647;28;20031;-61
2022/02/27 05:27:51;;;;;;;22.48;7.32;;;;;;;;;;4927558;28;20727;-61
2022/02/27 05:30:18;;;;;;;19.00;7.88;;;;;;;;;;4940989;28;20034;-62
2022/02/27 05:32:44;;;;;;;23.15;7.65;;;;;;;;;;4937595;28;20104;-61
2022/02/27 05:35:10;;;;;;;27.88;7.28;;;;;;;;;;4944479;28;20046;-62
2022/02/27 05:37:38;;;;;;;19.52;7.80;;;;;;;;;;4959359;28;20042;-61
2022/02/27 05:40:04;;;;;;;22.75;6.80;;;;;;;;;;4931498;28;20405;-61
2022/02/27 05:42:34;;;;;;;25.95;7.68;;;;;;;;;;4942009;28;20045;-61
2022/02/27 05:45:04;;;;;;;30.48;7.53;;;;;;;;;;4944384;28;20035;-61
2022/02/27 05:47:29;;;;;;;25.38;7.40;;;;;;;;;;4946252;28;21251;-61
2022/02/27 05:49:57;;;;;;;14.20;7.07;;;;;;;;;;4948947;28;20049;-61
2022/02/27 05:52:22;;;;;;;19.70;7.25;;;;;;;;;;4931456;28;20057;-60
2022/02/27 05:54:48;;;;;;;21.20;9.02;;;;;;;;;;4960027;28;20549;-61
2022/02/27 05:57:14;;;;;;;13.57;7.63;;;;;;;;;;4930497;28;20085;-61
2022/02/27 05:59:42;;;;;;;25.05;7.75;;;;;;;;;;4959997;28;20470;-61
2022/02/27 06:02:07;;;;;;;16.48;6.97;;;;;;;;;;4945547;28;20164;-60
2022/02/27 06:04:33;;;;;;;14.43;7.20;;;;;;;;;;4957996;28;20022;-61
2022/02/27 06:07:00;;;;;;;23.60;8.82;;;;;;;;;;4942526;28;20101;-61
2022/02/27 06:09:29;;;;;;;18.33;8.65;;;;;;;;;;4947950;28;20035;-61
2022/02/27 06:11:55;;;;;;;20.98;7.75;;;;;;;;;;4947387;28;20050;-61
2022/02/27 06:14:25;;;;;;;19.23;8.30;;;;;;;;;;4960710;28;20040;-60
2022/02/27 06:16:53;;;;;;;25.98;8.23;;;;;;;;;;4962099;28;20550;-60
2022/02/27 06:19:21;;;;;;;21.00;9.07;;;;;;;;;;4949831;28;20038;-61
2022/02/27 06:21:49;;;;;;;19.58;8.43;;;;;;;;;;4960539;28;20038;-60
2022/02/27 06:24:19;;;;;;;24.52;8.77;;;;;;;;;;4960590;28;20045;-61
2022/02/27 06:26:47;;;;;;;20.92;8.25;;;;;;;;;;4933967;28;20133;-60
2022/02/27 06:29:17;;;;;;;14.80;7.68;;;;;;;;;;4947859;28;20132;-60
2022/02/27 06:31:42;;;;;;;19.67;8.82;;;;;;;;;;4944443;28;20046;-59
2022/02/27 06:34:10;;;;;;;23.15;9.35;;;;;;;;;;4947928;28;20059;-60
2022/02/27 06:36:40;;;;;;;20.90;8.80;;;;;;;;;;4937078;28;20041;-60
2022/02/27 06:39:06;;;;;;;20.30;9.13;;;;;;;;;;4941455;28;20039;-60
2022/02/27 06:41:34;;;;;;;18.67;7.00;;;;;;;;;;4944988;28;21004;-60
2022/02/27 06:44:02;;;;;;;21.90;8.15;;;;;;;;;;4934048;28;20027;-60
2022/02/27 06:46:30;;;;;;;20.80;7.93;;;;;;;;;;4933210;28;20074;-60
2022/02/27 06:48:59;;;;;;;18.15;7.80;;;;;;;;;;4944074;28;20039;-60
2022/02/27 06:51:25;;;;;;;16.92;7.95;;;;;;;;;;4926715;28;20058;-60
2022/02/27 06:53:53;;;;;;;22.85;8.20;;;;;;;;;;4914228;28;20065;-61
2022/02/27 06:56:18;;;;;;;21.63;6.65;;;;;;;;;;4938280;28;20027;-60
2022/02/27 06:58:46;;;;;;;18.05;7.60;;;;;;;;;;4925569;28;20046;-59
2022/02/27 07:01:11;;;;;;;20.90;6.47;;;;;;;;;;4908242;28;20039;-59
2022/02/27 07:03:36;;;;;;;18.42;7.13;;;;;;;;;;4930065;28;20027;-60
2022/02/27 07:06:06;;;;;;;18.75;7.05;;;;;;;;;;4942075;28;20142;-60
2022/02/27 07:08:32;;;;;;;24.67;8.10;;;;;;;;;;4941393;28;20050;-60
2022/02/27 07:11:02;;;;;;;14.43;6.47;;;;;;;;;;4941812;28;20039;-60
2022/02/27 07:13:29;;;;;;;21.85;7.45;;;;;;;;;;4941349;28;20134;-62
2022/02/27 07:15:57;;;;;;;22.10;5.97;;;;;;;;;;4939756;28;20490;-62
2022/02/27 07:18:22;;;;;;;24.65;7.28;;;;;;;;;;4940001;28;20039;-61
2022/02/27 07:20:50;;;;;;;21.52;6.55;;;;;;;;;;4940593;28;20101;-62
2022/02/27 07:23:16;;;;;;;22.25;6.57;;;;;;;;;;4942113;28;20030;-61
2022/02/27 07:25:44;;;;;;;16.27;5.40;;;;;;;;;;4927262;28;20035;-61
2022/02/27 07:28:10;;;;;;;7.45;4.63;;;;;;;;;;4933428;28;21031;-61
2022/02/27 07:30:36;;;;;;;23.15;7.18;;;;;;;;;;4942883;28;20038;-60
2022/02/27 07:33:04;;;;;;;15.85;5.03;;;;;;;;;;4941587;28;20487;-61
2022/02/27 07:35:32;;;;;;;21.40;6.63;;;;;;;;;;4926513;28;20067;-59
2022/02/27 07:37:58;;;;;;;11.13;5.10;;;;;;;;;;4923491;28;20046;-59
2022/02/27 07:40:23;;;;;;;17.15;5.85;;;;;;;;;;4937411;28;20066;-59
2022/02/27 07:42:48;;;;;;;16.90;6.13;;;;;;;;;;4941963;28;20031;-60
2022/02/27 07:45:18;;;;;;;19.38;5.10;;;;;;;;;;4941146;28;20338;-60
2022/02/27 07:47:43;;;;;;;27.38;6.75;;;;;;;;;;4934252;28;20039;-61
2022/02/27 07:50:11;;;;;;;11.65;4.40;;;;;;;;;;4929118;28;20177;-60
2022/02/27 07:52:39;;;;;;;12.70;4.30;;;;;;;;;;4925510;28;20053;-62
2022/02/27 07:55:07;;;;;;;13.70;4.25;;;;;;;;;;4939755;28;20494;-62
2022/02/27 07:57:33;;;;;;;14.65;4.55;;;;;;;;;;4928587;28;20431;-62
2022/02/27 07:59:59;;;;;;;10.27;3.75;;;;;;;;;;4927596;28;20035;-62
2022/02/27 08:02:26;;;;;;;14.50;3.78;;;;;;;;;;4926486;28;20038;-62
2022/02/27 08:04:55;;;;;;;14.77;3.83;;;;;;;;;;4942351;28;20027;-62
2022/02/27 08:07:21;;;;;;;21.00;4.00;;;;;;;;;;4910446;28;20648;-61
2022/02/27 08:09:46;;;;;;;8.23;3.08;;;;;;;;;;4921761;28;20039;-61
2022/02/27 08:12:11;;;;;;;9.93;3.25;;;;;;;;;;4926199;28;20051;-61
2022/02/27 08:14:40;;;;;;;16.85;3.50;;;;;;;;;;4940936;28;20046;-61
2022/02/27 08:17:05;;;;;;;8.52;2.80;;;;;;;;;;4941405;28;20035;-62
2022/02/27 08:19:33;;;;;;;9.45;2.70;;;;;;;;;;4922258;28;20181;-61
2022/02/27 08:22:00;;;;;;;10.20;2.85;;;;;;;;;;4941554;28;20414;-60
2022/02/27 08:24:27;;;;;;;9.63;3.22;;;;;;;;;;4940318;28;20059;-63
2022/02/27 08:26:53;;;;;;;8.40;3.22;;;;;;;;;;4924906;28;20034;-63
2022/02/27 08:29:19;;;;;;;12.48;3.42;;;;;;;;;;4922022;28;20137;-62
2022/02/27 08:31:47;;;;;;;8.73;3.45;;;;;;;;;;4929178;28;20125;-62
2022/02/27 08:34:13;;;;;;;11.98;3.88;;;;;;;;;;4950455;28;20544;-62
2022/02/27 08:36:41;;;;;;;14.15;3.45;;;;;;;;;;4956300;28;20432;-62
2022/02/27 08:39:07;;;;;;;8.57;2.92;;;;;;;;;;4932273;28;20041;-62
2022/02/27 08:41:38;;;;;;;13.30;2.92;;;;;;;;;;4958126;28;20038;-62
2022/02/27 08:44:05;;;;;;;13.45;2.78;;;;;;;;;;4926518;28;20048;-62
2022/02/27 08:46:31;;;;;;;7.10;2.90;;;;;;;;;;4955628;28;20042;-62
2022/02/27 08:48:56;;;;;;;14.55;3.63;;;;;;;;;;4956255;28;20092;-62
2022/02/27 08:51:24;;;;;;;12.25;3.22;;;;;;;;;;4945181;28;20049;-61
2022/02/27 08:53:49;;;;;;;11.15;3.63;;;;;;;;;;4914624;28;20046;-63
2022/02/27 08:56:15;;;;;;;12.45;3.10;;;;;;;;;;4958598;28;21014;-62
2022/02/27 08:58:43;;;;;;;15.40;3.58;;;;;;;;;;4929970;28;20035;-62
2022/02/27 09:01:09;;;;;;;11.18;3.17;;;;;;;;;;4958521;28;20117;-62
2022/02/27 09:03:37;;;;;;;12.23;2.95;;;;;;;;;;4947175;28;20045;-62
2022/02/27 09:06:08;;;;;;;8.75;3.28;;;;;;;;;;4940308;28;20034;-63
2022/02/27 09:08:34;;;;;;;9.38;2.92;;;;;;;;;;4957189;28;22090;-62
2022/02/27 09:11:00;;;;;;;11.45;3.53;;;;;;;;;;4956690;28;20046;-62
2022/02/27 09:13:25;;;;;;;11.45;2.65;;;;;;;;;;4946786;28;20035;-62
2022/02/27 09:15:54;;;;;;;12.20;2.72;;;;;;;;;;4940267;28;20053;-63
2022/02/27 09:18:22;;;;;;;10.30;2.78;;;;;;;;;;4956742;28;20053;-62
2022/02/27 09:20:50;;;;;;;17.00;3.60;;;;;;;;;;4938587;28;20038;-62
2022/02/27 09:23:20;;;;;;;6.10;2.65;;;;;;;;;;4929775;28;20039;-63
2022/02/27 09:25:48;;;;;;;5.40;2.38;;;;;;;;;;4945037;28;20038;-63
2022/02/27 09:28:16;;;;;;;9.85;3.42;;;;;;;;;;4940927;28;20039;-63
2022/02/27 09:30:42;;;;;;;11.98;2.92;;;;;;;;;;4945215;28;20105;-64
2022/02/27 09:33:08;;;;;;;10.57;2.80;;;;;;;;;;4959083;28;20047;-63
2022/02/27 09:35:39;;;;;;;9.32;2.25;;;;;;;;;;4931013;28;20048;-63
2022/02/27 09:38:08;;;;;;;7.13;2.67;;;;;;;;;;4947085;28;20039;-63
2022/02/27 09:40:33;;;;;;;10.35;3.00;;;;;;;;;;4946433;28;20034;-62
2022/02/27 09:43:01;;;;;;;7.78;2.67;;;;;;;;;;4944420;28;20564;-62
2022/02/27 09:45:29;;;;;;;8.23;2.65;;;;;;;;;;4957718;28;20051;-62
2022/02/27 09:47:54;;;;;;;6.68;2.30;;;;;;;;;;4957409;28;20596;-62
2022/02/27 09:50:20;;;;;;;5.57;2.55;;;;;;;;;;4948047;28;20034;-62
2022/02/27 09:52:46;;;;;;;6.95;2.15;;;;;;;;;;4943802;28;20030;-61
2022/02/27 09:55:14;;;;;;;10.93;2.38;;;;;;;;;;4943666;28;20043;-62
2022/02/27 09:57:46;;;;;;;11.20;3.08;;;;;;;;;;4958197;28;20034;-63
2022/02/27 10:00:15;;;;;;;10.13;2.53;;;;;;;;;;4945717;28;20149;-62
2022/02/27 10:03:00;;;;;;;8.95;2.63;;;;;;;;;;4944908;28;20588;-62
2022/02/27 10:05:28;;;;;;;13.48;2.88;;;;;;;;;;4957930;28;20045;-61
2022/02/27 10:07:58;;;;;;;5.63;2.40;;;;;;;;;;4933656;28;20034;-62
2022/02/27 10:10:26;;;;;;;8.52;1.95;;;;;;;;;;4955944;28;20133;-63
2022/02/27 10:12:51;;;;;;;12.63;2.50;;;;;;;;;;4954678;28;20042;-61
2022/02/27 10:15:21;;;;;;;6.80;2.20;;;;;;;;;;4958776;28;20026;-62
2022/02/27 10:17:51;;;;;;;9.93;2.30;;;;;;;;;;4962419;28;20046;-63
2022/02/27 10:20:22;;;;;;;11.18;2.50;;;;;;;;;;4961276;28;21060;-62
2022/02/27 10:22:57;;;;;;;9.27;2.38;;;;;;;;;;4963035;28;20409;-62
2022/02/27 10:25:25;;;;;;;11.85;2.53;;;;;;;;;;4948979;28;20034;-62
2022/02/27 10:28:07;;;;;;;7.05;2.13;;;;;;;;;;4958143;28;20103;-62
2022/02/27 10:30:36;;;;;;;7.63;2.30;;;;;;;;;;4957264;28;20046;-62
2022/02/27 10:33:13;;;;;;;8.75;2.88;;;;;;;;;;4942150;28;20022;-63
2022/02/27 10:35:42;;;;;;;8.15;2.72;;;;;;;;;;4959048;28;20154;-62
2022/02/27 10:38:20;;;;;;;7.80;2.13;;;;;;;;;;4961014;28;20026;-62
2022/02/27 10:40:47;;;;;;;4.88;2.17;;;;;;;;;;4957960;28;20116;-62
2022/02/27 10:43:13;;;;;;;5.82;2.25;;;;;;;;;;4960420;28;20898;-62
2022/02/27 10:45:39;;;;;;;6.45;2.35;;;;;;;;;;4946926;28;20097;-62
2022/02/27 10:48:16;;;;;;;12.50;2.40;;;;;;;;;;4960892;28;20033;-63
2022/02/27 10:50:43;;;;;;;6.13;2.15;;;;;;;;;;4960771;28;20035;-62
2022/02/27 10:53:14;;;;;;;5.05;2.08;;;;;;;;;;4960947;28;22320;-61
2022/02/27 10:55:40;;;;;;;7.70;2.33;;;;;;;;;;4960808;28;20133;-62
2022/02/27 10:58:06;;;;;;;9.13;2.40;;;;;;;;;;4960610;28;20035;-62
2022/02/27 11:00:33;;;;;;;6.35;2.33;;;;;;;;;;4948943;28;20043;-61
2022/02/27 11:02:59;;;;;;;5.75;2.13;;;;;;;;;;4961764;28;20069;-62
2022/02/27 11:05:32;;;;;;;6.55;2.00;;;;;;;;;;4947885;28;20053;-60
2022/02/27 11:07:59;;;;;;;6.03;2.35;;;;;;;;;;4959264;28;20062;-61
2022/02/27 11:10:26;;;;;;;8.90;2.33;;;;;;;;;;4932063;28;20041;-62
2022/02/27 11:12:52;;;;;;;5.05;1.85;;;;;;;;;;4947901;28;20065;-61
2022/02/27 11:15:21;;;;;;;12.40;2.60;;;;;;;;;;4942389;28;20042;-64
2022/02/27 11:17:47;;;;;;;7.20;2.15;;;;;;;;;;4943524;28;20578;-63
2022/02/27 11:20:16;;;;;;;5.95;2.38;;;;;;;;;;4945068;28;21599;-62
2022/02/27 11:22:44;;;;;;;9.35;2.50;;;;;;;;;;4957983;28;21919;-61
2022/02/27 11:25:10;;;;;;;4.45;2.00;;;;;;;;;;4944427;28;21028;-63
2022/02/27 11:27:37;;;;;;;7.05;2.47;;;;;;;;;;4957206;28;20549;-61
2022/02/27 11:30:05;;;;;;;5.57;2.30;;;;;;;;;;4960044;28;20034;-64
2022/02/27 11:32:31;;;;;;;7.70;2.40;;;;;;;;;;4959758;28;20049;-62
2022/02/27 11:35:04;;;;;;;6.88;2.08;;;;;;;;;;4948266;28;20046;-62
2022/02/27 11:37:49;;;;;;;7.32;2.28;;;;;;;;;;4958693;28;20081;-62
2022/02/27 11:40:31;;;;;;;5.18;1.70;;;;;;;;;;4960923;28;20030;-63
2022/02/27 11:43:01;;;;;;;8.55;2.60;;;;;;;;;;4959614;28;20145;-61
2022/02/27 11:45:36;;;;;;;6.80;2.45;;;;;;;;;;4959857;28;20026;-65
2022/02/27 11:48:05;;;;;;;6.70;2.28;;;;;;;;;;4959317;28;20093;-63
2022/02/27 11:50:34;;;;;;;5.90;2.38;;;;;;;;;;4959592;28;20038;-62
2022/02/27 11:53:00;;;;;;;10.82;2.05;;;;;;;;;;4931542;28;20097;-63
2022/02/27 11:55:39;;;;;;;6.32;2.10;;;;;;;;;;4959984;28;20038;-61
2022/02/27 11:58:05;;;;;;;8.05;2.28;;;;;;;;;;4931923;28;20042;-62
2022/02/27 12:00:43;;;;;;;5.95;2.83;;;;;;;;;;4910315;28;20042;-63
2022/02/27 12:03:27;;;;;;;4.03;2.00;;;;;;;;;;4917651;28;20571;-63
2022/02/27 12:05:55;;;;;;;7.68;1.92;;;;;;;;;;4957770;28;20031;-63
2022/02/27 12:08:40;;;;;;;6.20;2.17;;;;;;;;;;4927596;28;20034;-63
2022/02/27 12:11:27;;;;;;;5.82;2.25;;;;;;;;;;4960025;28;20047;-63
2022/02/27 12:13:53;;;;;;;9.55;2.70;;;;;;;;;;4949708;28;20149;-63
2022/02/27 12:16:32;;;;;;;9.13;2.85;;;;;;;;;;4958977;28;20097;-63
2022/02/27 12:19:00;;;;;;;5.82;2.30;;;;;;;;;;4959092;28;20398;-62
2022/02/27 12:21:31;;;;;;;8.45;2.10;;;;;;;;;;4943510;28;20045;-64
2022/02/27 12:24:05;;;;;;;5.18;2.00;;;;;;;;;;4941664;28;20118;-64
2022/02/27 12:26:34;;;;;;;6.30;2.20;;;;;;;;;;4945894;28;21569;-64
2022/02/27 12:29:03;;;;;;;7.47;2.55;;;;;;;;;;4961025;28;20034;-62
2022/02/27 12:31:35;;;;;;;7.97;2.38;;;;;;;;;;4942310;28;20035;-60
2022/02/27 12:34:09;;;;;;;8.18;2.53;;;;;;;;;;4960465;28;20047;-64
2022/02/27 12:36:37;;;;;;;8.13;3.30;;;;;;;;;;4947481;28;20070;-63
2022/02/27 12:39:08;;;;;;;8.38;2.58;;;;;;;;;;4945707;28;20034;-63
2022/02/27 12:41:37;;;;;;;7.43;2.22;;;;;;;;;;4949192;28;20034;-62
2022/02/27 12:44:07;;;;;;;5.53;2.05;;;;;;;;;;4960576;28;20039;-63
2022/02/27 12:46:33;;;;;;;8.98;2.47;;;;;;;;;;4959350;28;20035;-63
2022/02/27 12:51:44;;;;;;;5.53;2.20;;;;;;;;;;4947632;28;20026;-63
2022/02/27 12:54:14;;;;;;;6.05;2.13;;;;;;;;;;4950787;28;20541;-64
2022/02/27 12:56:52;;;;;;;6.22;2.20;;;;;;;;;;4942693;28;20401;-64
2022/02/27 12:59:21;;;;;;;4.68;1.77;;;;;;;;;;4960735;28;20037;-64
2022/02/27 13:01:52;;;;;;;6.75;2.03;;;;;;;;;;4959404;28;20473;-64
2022/02/27 13:04:17;;;;;;;8.48;1.83;;;;;;;;;;4943760;28;20053;-63
2022/02/27 13:06:56;;;;;;;7.97;2.67;;;;;;;;;;4949428;28;20029;-65
2022/02/27 13:09:25;;;;;;;5.43;2.13;;;;;;;;;;4956213;28;20410;-62
2022/02/27 13:11:51;;;;;;;5.13;2.38;;;;;;;;;;4954712;28;20786;-63
2022/02/27 13:14:16;;;;;;;7.18;2.08;;;;;;;;;;4958376;28;20066;-62
2022/02/27 13:16:48;;;;;;;4.43;1.67;;;;;;;;;;4930280;28;20049;-62
2022/02/27 13:19:28;;;;;;;9.00;2.30;;;;;;;;;;4959082;28;20038;-65
2022/02/27 13:21:56;;;;;;;5.22;1.70;;;;;;;;;;4944622;28;20545;-61
2022/02/27 13:24:35;;;;;;;5.32;1.98;;;;;;;;;;4957812;28;20034;-61
2022/02/27 13:27:04;;;;;;;5.65;1.90;;;;;;;;;;4943349;28;20532;-63
2022/02/27 13:29:31;;;;;;;6.93;2.22;;;;;;;;;;4928927;28;20034;-64
2022/02/27 13:31:59;;;;;;;17.75;6.47;;;;;;;;;;4945640;28;20034;-64
2022/02/27 13:34:25;;;;;;;5.90;2.42;;;;;;;;;;4939764;28;20652;-61
2022/02/27 13:36:51;;;;;;;10.50;2.08;;;;;;;;;;4940613;28;20034;-63
2022/02/27 13:39:33;;;;;;;4.13;1.88;;;;;;;;;;4958276;28;20039;-58
2022/02/27 13:41:58;;;;;;;4.55;1.88;;;;;;;;;;4952962;28;20107;-65
2022/02/27 13:44:29;;;;;;;9.52;2.40;;;;;;;;;;4945586;28;20489;-64
2022/02/27 13:46:55;;;;;;;4.35;1.77;;;;;;;;;;4954190;28;20084;-64
2022/02/27 13:49:23;;;;;;;3.03;1.90;;;;;;;;;;4943717;28;20172;-64
2022/02/27 13:51:49;;;;;;;4.95;2.35;;;;;;;;;;4959954;28;20027;-64
2022/02/27 13:54:22;;;;;;;3.35;1.65;;;;;;;;;;4940139;28;20061;-63
2022/02/27 13:57:00;;;;;;;3.90;1.90;;;;;;;;;;4957950;28;20056;-64
2022/02/27 13:59:26;;;;;;;5.53;1.90;;;;;;;;;;4931875;28;20065;-64
2022/02/27 14:01:58;;;;;;;5.20;1.95;;;;;;;;;;4962767;28;20405;-64
2022/02/27 14:04:26;;;;;;;4.82;1.83;;;;;;;;;;4960771;28;20045;-64
2022/02/27 14:06:54;;;;;;;4.50;2.17;;;;;;;;;;4961936;28;20031;-64
2022/02/27 14:09:19;;;;;;;6.22;2.10;;;;;;;;;;4929291;28;20638;-63
2022/02/27 14:11:48;;;;;;;2.50;1.52;;;;;;;;;;4964635;28;20041;-65
2022/02/27 14:14:13;;;;;;;5.88;2.00;;;;;;;;;;4931102;28;20150;-63
2022/02/27 14:16:43;;;;;;;5.32;1.52;;;;;;;;;;4958708;28;20096;-62
2022/02/27 14:19:21;;;;;;;4.07;1.60;;;;;;;;;;4961238;28;20050;-65
2022/02/27 14:21:47;;;;;;;6.18;2.00;;;;;;;;;;4962621;28;20037;-64
2022/02/27 14:24:19;;;;;;;6.07;2.08;;;;;;;;;;4961470;28;21204;-65
2022/02/27 14:27:07;;;;;;;4.18;1.67;;;;;;;;;;4961652;28;20026;-65
2022/02/27 14:29:37;;;;;;;10.35;2.42;;;;;;;;;;4963155;28;20042;-65
2022/02/27 14:32:21;;;;;;;8.30;2.13;;;;;;;;;;4960803;28;20346;-64
2022/02/27 14:34:51;;;;;;;7.97;2.13;;;;;;;;;;4958076;28;21166;-64
2022/02/27 14:37:17;;;;;;;10.82;2.67;;;;;;;;;;4957262;28;20038;-65
2022/02/27 14:39:46;;;;;;;5.65;2.20;;;;;;;;;;4958019;28;20027;-64
2022/02/27 14:42:14;;;;;;;6.45;1.77;;;;;;;;;;4945498;28;20477;-64
2022/02/27 14:44:42;;;;;;;5.30;2.10;;;;;;;;;;4959902;28;20042;-62
2022/02/27 14:50:45;;;;;;;9.13;2.70;;;;;;;;;;4959640;28;20112;-61
2022/02/27 14:53:13;;;;;;;7.85;2.60;;;;;;;;;;4957397;28;20072;-64
2022/02/27 14:55:41;;;;;;;3.95;2.22;;;;;;;;;;4944447;28;20045;-64